New Johannesburg, Wisconsin
Current Conditions -  °F | °C
As of 3:35 PM on Friday 19 Dec 2014 (Local Time) from KRNH Reporting Station
Overcast Overcast  
Wind Chill: 18°   Ceiling: 1400
Heat Index: 27°   Visibility: 10mi
Dew Point: 24°   Wind: 8mph
Humidity: 89%   Direction: 150°SSE
Pressure: 30.2"   Gusts: NA
Location:  45.1804°N, 92.551°W
Report Text: KRNH 192135Z AUTO 15007KT 10SM OVC014 M03/M05 A3020 RMK AO2 T10301046
Loading
Personal Weather Stations






























Interactive Weather Map New forecast layout! Learn more

10-Day Weather Forecast

Advertisements
Track Severe Weather on mobile